This is the latest recevied weather packets stored in our database for station/object K0PFX-8. If no packets are shown the sender has not sent any weather packets the latest 10 day(s).
| Time | Temp. | Humidity | Pressure | Rain* | Wind** | Luminosity | Snow |
|---|---|---|---|---|---|---|---|
| 1777579615 | 18.33° C | 27% | 1017.9 hPa | 0 mm | 0.45 m/s, 269° | - | - |
| 1777578717 | 18.33° C | 25% | 1018.1 hPa | 0 mm | 0 m/s | - | - |
| 1777577815 | 18.33° C | 28% | 1018.1 hPa | 0 mm | 3.58 m/s, 267° | - | - |
| 1777576917 | 17.78° C | 29% | 1018.1 hPa | 0 mm | 1.79 m/s, 266° | - | - |
| 1777576016 | 17.78° C | 26% | 1018.4 hPa | 0 mm | 1.34 m/s, 207° | - | - |
| 1777575117 | 17.78° C | 28% | 1018.8 hPa | 0 mm | 2.24 m/s, 105° | - | - |
| 1777574216 | 17.22° C | 32% | 1018.9 hPa | 0 mm | 1.34 m/s, 129° | - | - |
| 1777573318 | 17.22° C | 28% | 1019.2 hPa | 0 mm | 3.13 m/s, 240° | - | - |
| 1777572417 | 17.22° C | 28% | 1019.4 hPa | 0 mm | 1.34 m/s, 197° | - | - |
| 1777571516 | 16.67° C | 29% | 1019.7 hPa | 0 mm | 2.24 m/s, 257° | - | - |
| 1777570615 | 16.67° C | 28% | 1020 hPa | 0 mm | 1.79 m/s, 156° | - | - |
| 1777569716 | 16.67° C | 32% | 1020.1 hPa | 0 mm | 0 m/s | - | - |
| 1777568815 | 16.11° C | 36% | 1020.3 hPa | 0 mm | 1.79 m/s, 148° | - | - |
| 1777567917 | 15.56° C | 36% | 1020.5 hPa | 0 mm | 2.24 m/s, 242° | - | - |
| 1777567016 | 15.56° C | 36% | 1020.4 hPa | 0 mm | 2.68 m/s, 255° | - | - |
| 1777566117 | 15.56° C | 29% | 1020.6 hPa | 0 mm | 0.89 m/s, 314° | - | - |
| 1777565216 | 15° C | 35% | 1020.5 hPa | 0 mm | 3.58 m/s, 271° | - | - |
| 1777564317 | 15° C | 38% | 1020.6 hPa | 0 mm | 1.79 m/s, 328° | - | - |
| 1777563416 | 14.44° C | 36% | 1020.5 hPa | 0 mm | 2.68 m/s, 242° | - | - |
| 1777562517 | 14.44° C | 31% | 1020.4 hPa | 0 mm | 0 m/s | - | - |
| 1777561616 | 13.89° C | 39% | 1020.6 hPa | 0 mm | 0 m/s | - | - |
| 1777560718 | 13.33° C | 43% | 1020.5 hPa | 0 mm | 1.34 m/s, 117° | - | - |
| 1777559816 | 12.78° C | 49% | 1020.5 hPa | 0 mm | 0.45 m/s, 248° | - | - |
| 1777558918 | 12.22° C | 61% | 1020.6 hPa | 0 mm | 0.45 m/s, 232° | - | - |
| 1777557118 | 11.67° C | 69% | 1020.7 hPa | 0 mm | 0 m/s | - | - |
* Rain latest hour (hover to see other rain measurements)
** Current wind speed in m/s (hover to see current wind gust speed)